Time;durP1;ratioP1;P1;durP2;ratioP2;P2;SDS_P1;SDS_P2;PMS_P1;PMS_P2;Temp;Humidity;BMP_temperature;BMP_pressure;BME280_temperature;BME280_humidity;BME280_pressure;Samples;Min_cycle;Max_cycle;Signal;HPM_P1;HPM_P2
2022/06/20 00:00:27;;;;;;;;;30.00;27.33;;;;;36.21;27.36;100715.31;4900623;28;45410;-82
2022/06/20 00:02:56;;;;;;;;;32.00;30.00;;;;;36.30;26.69;100701.69;4899269;29;45427;-82
2022/06/20 00:05:25;;;;;;;;;29.00;28.00;;;;;36.30;26.84;100688.81;4900654;29;45509;-83
2022/06/20 00:07:51;;;;;;;;;27.67;25.33;;;;;36.34;26.94;100692.16;4914817;28;48113;-82
2022/06/20 00:10:19;;;;;;;;;27.00;25.00;;;;;36.43;26.10;100724.47;4900021;29;45454;-83
2022/06/20 00:12:45;;;;;;;;;30.67;28.67;;;;;36.43;26.95;100707.91;4915250;28;45454;-82
2022/06/20 00:15:22;;;;;;;;;28.00;26.33;;;;;36.61;26.64;100715.50;4914137;28;45583;-82
2022/06/20 00:17:47;;;;;;;;;29.33;27.00;;;;;36.46;26.59;100710.38;4900133;28;45501;-82
2022/06/20 00:20:15;;;;;;;;;29.33;27.33;;;;;36.64;26.97;100723.50;4900453;28;45466;-82
2022/06/20 00:22:40;;;;;;;;;24.00;23.00;;;;;36.44;26.68;100706.00;4915221;28;45606;-82
2022/06/20 00:25:06;;;;;;;;;26.67;26.00;;;;;36.47;26.83;100687.25;4899837;29;45595;-82
2022/06/20 00:27:31;;;;;;;;;30.67;25.67;;;;;36.54;26.96;100690.31;4914749;28;47724;-82
2022/06/20 00:29:57;;;;;;;;;31.33;28.33;;;;;36.65;26.67;100700.38;4900224;28;45464;-82
2022/06/20 00:32:22;;;;;;;;;28.33;24.67;;;;;36.49;26.78;100671.41;4900150;29;45492;-83
2022/06/20 00:34:47;;;;;;;;;26.33;25.67;;;;;36.68;26.72;100672.44;4899940;28;45321;-82
2022/06/20 00:37:19;;;;;;;;;24.33;22.33;;;;;36.69;26.79;100672.31;4900075;28;45460;-82
2022/06/20 00:39:46;;;;;;;;;27.33;27.00;;;;;36.69;27.32;100660.38;4899716;29;45360;-83
2022/06/20 00:42:12;;;;;;;;;25.00;25.00;;;;;36.60;27.14;100647.41;4900067;28;45490;-83
2022/06/20 00:44:44;;;;;;;;;24.67;23.33;;;;;36.82;27.01;100665.66;4899905;28;45475;-83
2022/06/20 00:47:14;;;;;;;;;29.00;27.67;;;;;36.78;26.62;100656.78;4899975;29;46158;-83
2022/06/20 00:49:49;;;;;;;;;28.67;26.00;;;;;36.83;26.95;100665.50;4898242;29;45558;-82
2022/06/20 00:52:21;;;;;;;;;28.67;26.33;;;;;36.74;26.93;100639.59;4914509;28;45322;-83
2022/06/20 00:55:17;;;;;;;;;26.33;26.33;;;;;36.82;26.72;100652.72;4914148;28;45415;-83
2022/06/20 00:57:49;;;;;;;;;29.33;28.33;;;;;36.50;26.24;100601.31;4913824;28;48457;-83
2022/06/20 01:00:20;;;;;;;;;28.67;25.33;;;;;36.86;26.97;100656.94;4914391;28;46255;-83
2022/06/20 01:02:55;;;;;;;;;27.67;26.67;;;;;36.93;26.74;100659.13;4899741;28;45414;-82
2022/06/20 01:05:47;;;;;;;;;23.33;23.33;;;;;36.80;27.04;100643.69;4899730;29;45342;-83
2022/06/20 01:08:19;;;;;;;;;27.33;24.33;;;;;36.84;26.78;100660.88;4900859;28;45558;-83
2022/06/20 01:10:56;;;;;;;;;27.33;25.67;;;;;36.32;26.76;100614.09;4899363;28;45362;-83
2022/06/20 01:13:22;;;;;;;;;26.33;26.33;;;;;36.33;26.66;100660.91;4899702;29;45399;-83
2022/06/20 01:15:50;;;;;;;;;24.33;23.67;;;;;36.11;26.56;100664.72;4899449;29;45569;-83
2022/06/20 01:18:23;;;;;;;;;27.33;27.33;;;;;36.11;27.37;100724.59;4913775;28;46388;-83
2022/06/20 01:20:51;;;;;;;;;30.67;29.00;;;;;35.84;27.33;100699.31;4913852;28;45727;-83
2022/06/20 01:23:32;;;;;;;;;29.33;27.00;;;;;35.81;27.28;100735.47;4899130;29;45343;-83
2022/06/20 01:26:27;;;;;;;;;22.00;22.00;;;;;35.85;27.73;100736.97;4899316;29;45442;-83
2022/06/20 01:28:57;;;;;;;;;25.00;24.00;;;;;35.62;27.41;100736.19;4913527;28;48605;-83
2022/06/20 01:31:25;;;;;;;;;27.33;26.33;;;;;35.68;27.73;100720.97;4899145;29;45526;-83
2022/06/20 01:33:51;;;;;;;;;29.67;26.67;;;;;35.53;27.49;100677.16;4898852;28;45492;-83
2022/06/20 01:39:06;;;;;;;;;28.00;27.33;;;;;35.39;28.30;100638.88;4898784;29;45748;-83
2022/06/20 01:44:19;;;;;;;;;28.33;25.33;;;;;35.14;28.50;100593.25;4899153;29;45362;-83
2022/06/20 01:46:44;;;;;;;;;27.67;26.67;;;;;35.43;27.62;100609.13;4899025;29;45686;-83
2022/06/20 01:49:14;;;;;;;;;26.67;24.67;;;;;35.79;28.13;100623.41;4898801;29;45800;-82
2022/06/20 01:51:56;;;;;;;;;24.33;24.33;;;;;35.75;27.88;100588.81;4898481;29;45411;-82
2022/06/20 01:54:25;;;;;;;;;32.00;31.00;;;;;35.89;27.75;100588.47;4899020;29;45387;-82
2022/06/20 01:56:53;;;;;;;;;25.00;23.67;;;;;35.62;28.11;100531.13;4898823;29;45611;-82
2022/06/20 01:59:41;;;;;;;;;24.67;24.00;;;;;35.91;27.69;100553.34;4898907;29;46891;-82
2022/06/20 02:02:07;;;;;;;;;22.00;22.00;;;;;35.64;27.38;100507.91;4897479;29;45392;-82
2022/06/20 02:04:35;;;;;;;;;23.00;21.67;;;;;35.67;27.29;100504.00;4898853;29;45395;-83
2022/06/20 02:07:04;;;;;;;;;24.33;23.33;;;;;35.68;27.89;100489.16;4898587;28;45398;-83
2022/06/20 02:09:31;;;;;;;;;25.00;25.00;;;;;35.63;27.86;100416.97;4898501;28;45446;-83
2022/06/20 02:11:56;;;;;;;;;23.00;21.33;;;;;35.85;27.65;100357.91;4898894;28;45630;-82
2022/06/20 02:14:28;;;;;;;;;23.00;22.67;;;;;35.83;27.33;100282.66;4899012;28;45449;-83
2022/06/20 02:17:05;;;;;;;;;26.00;23.67;;;;;35.76;27.46;100271.28;4898807;28;45316;-83
2022/06/20 02:19:37;;;;;;;;;25.00;25.00;;;;;35.92;27.60;100331.44;4898645;28;45384;-83
2022/06/20 02:22:06;;;;;;;;;24.67;24.67;;;;;36.00;27.60;100385.94;4898359;28;45394;-83
2022/06/20 02:24:35;;;;;;;;;23.33;23.33;;;;;35.86;27.52;100368.78;4898612;28;45312;-83
2022/06/20 02:27:04;;;;;;;;;19.67;19.67;;;;;35.86;27.51;100351.38;4913270;28;45295;-83
2022/06/20 02:29:30;;;;;;;;;24.33;20.67;;;;;35.97;27.28;100365.03;4898476;28;45587;-83
2022/06/20 02:32:02;;;;;;;;;23.67;23.67;;;;;35.95;27.47;100367.06;4897180;29;45338;-83
2022/06/20 02:34:29;;;;;;;;;26.00;21.33;;;;;35.99;27.66;100384.19;4898157;29;45366;-82
2022/06/20 02:37:01;;;;;;;;;26.00;22.33;;;;;36.01;27.36;100404.28;4898516;29;45157;-83
2022/06/20 02:39:27;;;;;;;;;24.00;22.00;;;;;36.01;27.59;100410.66;4901845;28;45630;-82
2022/06/20 02:41:58;;;;;;;;;23.67;22.67;;;;;35.84;26.95;100425.19;4901738;28;45577;-82
2022/06/20 02:44:25;;;;;;;;;24.67;22.67;;;;;35.81;27.55;100470.50;4901914;28;45437;-83
2022/06/20 02:46:54;;;;;;;;;31.67;29.33;;;;;35.64;27.85;100471.13;4916088;28;45513;-83
2022/06/20 02:49:23;;;;;;;;;23.00;23.00;;;;;35.63;27.58;100492.34;4901526;28;45325;-83
2022/06/20 02:51:51;;;;;;;;;16.67;16.67;;;;;35.50;27.56;100465.00;4901017;28;45336;-83
2022/06/20 02:54:21;;;;;;;;;21.00;20.33;;;;;35.62;27.55;100487.81;4901776;28;45267;-82
2022/06/20 02:56:54;;;;;;;;;27.00;24.33;;;;;35.59;27.77;100520.38;4916108;28;45481;-83
2022/06/20 02:59:34;;;;;;;;;27.00;24.67;;;;;35.51;27.87;100534.84;4901422;29;45505;-83
2022/06/20 03:02:09;;;;;;;;;26.67;22.67;;;;;35.46;27.74;100559.19;4901540;28;45635;-83
2022/06/20 03:04:39;;;;;;;;;23.33;21.67;;;;;35.49;28.23;100576.34;4901203;29;45398;-83
2022/06/20 03:07:11;;;;;;;;;25.00;22.00;;;;;35.22;28.21;100552.09;4901490;28;45316;-83
2022/06/20 03:09:40;;;;;;;;;23.33;20.33;;;;;35.36;28.04;100565.56;4900932;28;46272;-83
2022/06/20 03:12:07;;;;;;;;;20.67;20.00;;;;;35.34;28.26;100539.13;4916027;28;45418;-83
2022/06/20 03:14:49;;;;;;;;;24.00;24.00;;;;;35.44;28.28;100577.78;4901570;28;45473;-83
2022/06/20 03:17:17;;;;;;;;;26.33;24.00;;;;;35.25;28.33;100581.25;4901322;29;45453;-83
2022/06/20 03:19:47;;;;;;;;;23.00;22.33;;;;;35.47;27.89;100606.00;4899408;29;47113;-83
2022/06/20 03:22:16;;;;;;;;;26.00;22.67;;;;;35.52;28.03;100611.94;4901037;29;45381;-83
2022/06/20 03:24:43;;;;;;;;;21.33;20.00;;;;;35.65;27.76;100599.81;4901280;28;45470;-83
2022/06/20 03:27:14;;;;;;;;;24.33;23.33;;;;;35.68;27.99;100632.66;4915706;28;45533;-83
2022/06/20 03:29:43;;;;;;;;;25.67;22.33;;;;;35.46;28.26;100640.09;4900632;28;45438;-69
2022/06/20 03:32:09;;;;;;;;;23.67;22.67;;;;;35.19;28.72;100637.81;4900972;28;45438;-69
2022/06/20 03:34:34;;;;;;;;;26.00;24.67;;;;;35.09;28.34;100617.59;4900463;28;45435;-68
2022/06/20 03:37:02;;;;;;;;;23.33;21.67;;;;;35.08;28.20;100616.72;4900790;28;45699;-69
2022/06/20 03:39:28;;;;;;;;;25.67;24.00;;;;;34.97;28.82;100664.50;4900879;29;46139;-69
2022/06/20 03:41:54;;;;;;;;;23.33;20.00;;;;;35.07;28.82;100677.50;4900493;29;45358;-68
2022/06/20 03:44:30;;;;;;;;;25.33;19.67;;;;;35.22;28.37;100693.59;4900996;29;45381;-69
2022/06/20 03:47:05;;;;;;;;;24.00;22.67;;;;;35.28;28.26;100675.66;4900858;28;45403;-69
2022/06/20 03:49:41;;;;;;;;;25.67;22.00;;;;;35.08;28.44;100670.97;4898646;29;46614;-69
2022/06/20 03:52:22;;;;;;;;;24.33;21.00;;;;;35.00;28.42;100677.16;4900854;28;45311;-69
2022/06/20 03:55:07;;;;;;;;;20.67;19.67;;;;;34.77;28.61;100682.72;4900613;29;45446;-68
2022/06/20 03:57:39;;;;;;;;;23.00;21.67;;;;;34.71;28.37;100672.19;4900782;29;45370;-69
2022/06/20 04:00:11;;;;;;;;;24.00;22.33;;;;;34.75;28.86;100673.69;4900525;28;46304;-69
2022/06/20 04:02:48;;;;;;;;;24.00;22.67;;;;;34.67;28.74;100692.75;4900100;28;45414;-69
2022/06/20 04:05:44;;;;;;;;;23.33;21.00;;;;;34.88;28.61;100698.34;4900770;29;45412;-69
2022/06/20 04:08:19;;;;;;;;;27.67;24.33;;;;;34.87;28.52;100693.88;4900557;29;45458;-69
2022/06/20 04:11:03;;;;;;;;;23.00;20.00;;;;;34.89;28.10;100708.38;4900127;28;45991;-69
2022/06/20 04:13:43;;;;;;;;;24.67;22.67;;;;;34.85;28.10;100710.56;4900518;28;45370;-69
2022/06/20 04:16:32;;;;;;;;;22.67;21.00;;;;;34.85;28.29;100716.06;4900622;28;45514;-69
2022/06/20 04:18:57;;;;;;;;;23.33;21.33;;;;;34.74;28.08;100718.81;4902242;28;45410;-69
2022/06/20 04:21:55;;;;;;;;;23.67;21.33;;;;;34.83;28.14;100717.19;4900273;29;46383;-68
2022/06/20 04:24:31;;;;;;;;;24.67;23.00;;;;;34.85;27.75;100718.81;4900290;29;45445;-69
2022/06/20 04:27:11;;;;;;;;;21.00;21.00;;;;;34.87;27.93;100721.44;4900183;28;45522;-67
2022/06/20 04:29:36;;;;;;;;;24.00;19.33;;;;;34.87;27.96;100730.56;4900364;28;45352;-67
2022/06/20 04:32:16;;;;;;;;;23.67;22.67;;;;;34.77;28.02;100728.69;4899508;29;45320;-67
2022/06/20 04:34:47;;;;;;;;;21.67;20.00;;;;;34.79;28.01;100727.56;4899755;28;45478;-67
2022/06/20 04:37:38;;;;;;;;;14.00;14.00;;;;;34.77;28.21;100739.69;4900057;28;45374;-67
2022/06/20 04:40:19;;;;;;;;;20.33;17.67;;;;;34.62;28.21;100704.16;4899895;29;45581;-67
2022/06/20 04:42:51;;;;;;;;;25.00;21.33;;;;;34.75;28.03;100727.94;4899855;28;45371;-67
2022/06/20 04:45:23;;;;;;;;;28.33;26.00;;;;;34.55;28.27;100733.22;4900011;28;45472;-70
2022/06/20 04:48:03;;;;;;;;;24.00;24.00;;;;;34.42;28.05;100725.13;4899413;29;45380;-71
2022/06/20 04:50:32;;;;;;;;;25.67;24.00;;;;;34.68;27.75;100752.38;4899120;28;45444;-71
2022/06/20 04:53:05;;;;;;;;;24.00;22.00;;;;;34.73;27.77;100763.91;4899204;28;45563;-73
2022/06/20 04:55:30;;;;;;;;;29.00;27.33;;;;;34.58;27.82;100763.28;4888714;28;45434;-71
2022/06/20 04:58:01;;;;;;;;;27.33;25.33;;;;;34.42;27.63;100757.31;4914433;28;45359;-71
2022/06/20 05:00:34;;;;;;;;;28.67;25.00;;;;;34.41;27.96;100772.06;4898903;28;45426;-71
2022/06/20 05:02:59;;;;;;;;;28.00;26.67;;;;;34.26;27.71;100763.13;4898911;28;46464;-72
2022/06/20 05:05:30;;;;;;;;;22.67;22.00;;;;;34.26;27.89;100785.16;4897379;29;45361;-70
2022/06/20 05:07:56;;;;;;;;;26.67;25.67;;;;;34.27;27.99;100782.28;4898891;28;45318;-72
2022/06/20 05:10:31;;;;;;;;;26.67;26.00;;;;;34.22;27.91;100780.91;4899285;29;45406;-71
2022/06/20 05:13:01;;;;;;;;;28.33;28.00;;;;;34.24;27.89;100798.19;4897451;28;45463;-71
2022/06/20 05:15:38;;;;;;;;;28.33;24.67;;;;;34.22;27.85;100791.91;4898697;28;45334;-73
2022/06/20 05:18:14;;;;;;;;;26.33;26.33;;;;;34.24;28.13;100792.69;4899080;29;45519;-72
2022/06/20 05:20:42;;;;;;;;;28.33;25.67;;;;;34.33;27.98;100798.38;4899423;28;45316;-71
2022/06/20 05:23:21;;;;;;;;;28.67;28.33;;;;;34.51;27.70;100793.22;4894205;28;46329;-72
2022/06/20 05:25:47;;;;;;;;;26.00;24.33;;;;;34.59;28.12;100797.25;4893532;29;45392;-70
2022/06/20 05:28:24;;;;;;;;;25.67;23.67;;;;;34.60;27.32;100805.38;4889851;28;45493;-71
2022/06/20 05:30:51;;;;;;;;;28.00;22.67;;;;;34.69;27.80;100809.25;4895905;29;45546;-71
2022/06/20 05:33:28;;;;;;;;;28.00;25.00;;;;;34.69;27.51;100809.25;4898023;29;45482;-71
2022/06/20 05:36:04;;;;;;;;;22.67;22.67;;;;;34.74;27.44;100807.00;4913510;28;45964;-70
2022/06/20 05:38:58;;;;;;;;;19.67;19.67;;;;;34.82;27.30;100807.25;4898487;29;45498;-71
2022/06/20 05:41:24;;;;;;;;;25.67;23.67;;;;;34.94;27.19;100810.00;4898921;28;45328;-71
2022/06/20 05:43:49;;;;;;;;;24.00;22.00;;;;;34.87;27.40;100796.72;4897906;29;46066;-71
2022/06/20 05:46:25;;;;;;;;;23.00;22.33;;;;;34.98;27.04;100820.66;4898022;29;45463;-69
2022/06/20 05:49:02;;;;;;;;;16.67;16.67;;;;;34.91;27.29;100826.78;4898176;28;45433;-70
2022/06/20 05:51:28;;;;;;;;;23.00;22.67;;;;;34.80;27.20;100824.94;4898513;28;46423;-70
2022/06/20 05:54:01;;;;;;;;;22.00;22.00;;;;;34.91;27.40;100837.81;4898264;28;45917;-71
2022/06/20 05:56:34;;;;;;;;;26.00;22.33;;;;;34.90;27.40;100827.81;4898659;28;45395;-82
2022/06/20 05:59:01;;;;;;;;;23.67;19.00;;;;;35.00;27.21;100835.16;4895445;29;45339;-82
2022/06/20 06:01:31;;;;;;;;;22.00;19.33;;;;;34.86;27.09;100833.56;4897597;28;45448;-78
2022/06/20 06:03:56;;;;;;;;;20.33;18.67;;;;;34.89;27.34;100839.84;4895963;29;46241;-78
2022/06/20 06:06:28;;;;;;;;;19.00;17.67;;;;;35.01;27.11;100844.34;4896136;29;45667;-78
2022/06/20 06:09:04;;;;;;;;;19.67;17.00;;;;;35.05;27.32;100859.63;4911784;28;45493;-77
2022/06/20 06:11:46;;;;;;;;;20.33;20.33;;;;;35.07;26.83;100845.69;4897787;29;45485;-78
2022/06/20 06:14:32;;;;;;;;;18.33;18.00;;;;;35.27;27.09;100857.81;4900512;29;45975;-77
2022/06/20 06:17:21;;;;;;;;;17.67;17.67;;;;;35.03;26.96;100867.13;4901434;29;45486;-77
2022/06/20 06:19:59;;;;;;;;;20.67;20.67;;;;;34.76;27.08;100853.72;4902082;29;45497;-77
2022/06/20 06:22:26;;;;;;;;;22.00;20.33;;;;;34.63;27.37;100871.25;4902052;29;45288;-77
2022/06/20 06:24:58;;;;;;;;;19.67;18.67;;;;;34.72;27.21;100864.09;4915994;28;46182;-78
2022/06/20 06:27:27;;;;;;;;;20.00;20.00;;;;;34.74;27.11;100873.13;4916019;28;45935;-77
2022/06/20 06:30:00;;;;;;;;;24.67;22.33;;;;;34.76;27.05;100856.47;4901636;29;45455;-77
2022/06/20 06:32:48;;;;;;;;;23.00;23.00;;;;;34.84;27.14;100865.03;4901772;29;45551;-78
2022/06/20 06:35:44;;;;;;;;;27.00;25.33;;;;;34.83;26.95;100880.66;4901195;29;45466;-77
2022/06/20 06:38:18;;;;;;;;;21.33;20.00;;;;;35.04;27.14;100890.94;4901424;29;45483;-77
2022/06/20 06:40:50;;;;;;;;;26.33;22.33;;;;;35.07;26.78;100885.16;4901914;29;45487;-77
2022/06/20 06:43:37;;;;;;;;;25.33;23.00;;;;;35.02;26.33;100896.59;4901130;29;45500;-77
2022/06/20 06:46:05;;;;;;;;;26.67;23.67;;;;;35.12;27.11;100893.94;4901387;29;46212;-77
2022/06/20 06:48:34;;;;;;;;;21.33;21.33;;;;;35.15;26.37;100907.47;4901255;29;45479;-77
2022/06/20 06:51:09;;;;;;;;;20.00;20.00;;;;;35.09;26.53;100899.69;4901331;29;45388;-77
2022/06/20 06:53:43;;;;;;;;;24.00;22.00;;;;;35.00;26.63;100917.00;4901484;29;45339;-77
2022/06/20 06:56:38;;;;;;;;;17.00;16.00;;;;;34.55;26.74;100914.19;4900742;29;45594;-77
2022/06/20 06:59:11;;;;;;;;;23.67;20.33;;;;;34.38;26.88;100916.41;4901306;28;45486;-77
2022/06/20 07:01:43;;;;;;;;;16.33;16.33;;;;;34.42;26.87;100917.94;4901187;29;45354;-77
2022/06/20 07:04:26;;;;;;;;;17.00;17.00;;;;;34.34;27.11;100931.44;4901204;29;45519;-77
2022/06/20 07:07:38;;;;;;;;;16.33;16.00;;;;;34.36;27.25;100929.41;4901228;28;45660;-77
2022/06/20 07:10:07;;;;;;;;;14.67;14.67;;;;;34.41;27.21;100924.44;4907627;28;45548;-77
2022/06/20 07:12:49;;;;;;;;;20.67;15.33;;;;;34.44;27.19;100926.94;4917964;28;45421;-77
2022/06/20 07:15:21;;;;;;;;;18.00;16.00;;;;;34.49;27.31;100940.38;4918286;28;45640;-77
2022/06/20 07:17:54;;;;;;;;;12.67;12.67;;;;;34.41;26.90;100931.81;4917958;28;45516;-76
2022/06/20 07:20:24;;;;;;;;;14.67;13.67;;;;;34.40;27.10;100941.09;4887053;28;46581;-78
2022/06/20 07:22:49;;;;;;;;;16.33;14.33;;;;;34.36;27.12;100937.69;4929300;28;45435;-77
2022/06/20 07:25:20;;;;;;;;;15.67;15.33;;;;;34.56;27.10;100938.88;4921372;28;45636;-77
2022/06/20 07:28:00;;;;;;;;;14.67;14.67;;;;;34.75;26.69;100949.28;4902008;28;47463;-77
2022/06/20 07:30:32;;;;;;;;;15.33;14.00;;;;;34.76;26.91;100952.94;4925005;28;45419;-77
2022/06/20 07:33:28;;;;;;;;;17.33;14.33;;;;;34.60;26.44;100942.25;4924003;28;45549;-77
2022/06/20 07:35:57;;;;;;;;;19.67;16.00;;;;;34.61;26.56;100944.00;4914825;28;45429;-77
2022/06/20 07:38:34;;;;;;;;;16.33;15.33;;;;;34.58;26.98;100956.16;4907487;28;47314;-77
2022/06/20 07:41:13;;;;;;;;;15.00;14.33;;;;;34.73;26.35;100951.28;4919714;28;45596;-77
2022/06/20 07:44:02;;;;;;;;;11.67;11.67;;;;;34.77;26.81;100950.06;4923134;28;45521;-77
2022/06/20 07:46:46;;;;;;;;;30.00;26.00;;;;;34.79;26.41;100956.31;4903093;28;45573;-77
2022/06/20 07:49:22;;;;;;;;;20.00;16.33;;;;;34.76;26.31;100958.44;4912223;28;45784;-76
2022/06/20 07:51:50;;;;;;;;;15.33;14.67;;;;;34.63;26.23;100962.19;4896622;29;45347;-76
2022/06/20 07:54:23;;;;;;;;;14.00;12.00;;;;;34.59;26.62;100951.53;4896777;29;45612;-76
2022/06/20 07:57:02;;;;;;;;;27.67;22.33;;;;;34.79;26.24;100975.59;4897081;29;45372;-77
2022/06/20 07:59:34;;;;;;;;;13.00;13.00;;;;;34.62;26.04;100982.44;4896554;29;45542;-76
2022/06/20 08:02:06;;;;;;;;;18.67;15.33;;;;;34.60;26.36;100983.56;4896296;29;45469;-75
2022/06/20 08:04:35;;;;;;;;;11.67;11.67;;;;;34.67;26.16;100979.31;4896748;29;45926;-75
2022/06/20 08:07:35;;;;;;;;;10.00;10.00;;;;;34.75;26.11;100993.38;4911406;28;45591;-76
2022/06/20 08:10:41;;;;;;;;;13.67;11.33;;;;;34.60;26.21;100994.59;4926265;28;46417;-76
2022/06/20 08:13:12;;;;;;;;;11.33;11.33;;;;;34.45;26.11;100989.28;4924141;28;45439;-76
2022/06/20 08:15:53;;;;;;;;;8.00;8.00;;;;;34.30;26.38;100985.84;4932200;28;45553;-76
2022/06/20 08:18:20;;;;;;;;;14.33;13.33;;;;;34.16;25.80;100969.50;4911279;28;45603;-76
2022/06/20 08:20:51;;;;;;;;;14.33;12.67;;;;;33.96;26.36;100957.28;4927332;28;46253;-77
2022/06/20 08:23:27;;;;;;;;;9.67;9.00;;;;;34.24;26.37;100990.97;4915086;28;45530;-77
2022/06/20 08:25:58;;;;;;;;;12.67;10.67;;;;;34.19;26.12;100985.78;4916928;28;45427;-78
2022/06/20 08:28:33;;;;;;;;;10.00;8.67;;;;;34.46;26.22;100974.53;4928224;28;45450;-78
2022/06/20 08:31:11;;;;;;;;;12.33;11.67;;;;;34.47;26.02;100957.03;4912947;28;47340;-79
2022/06/20 08:33:47;;;;;;;;;16.33;13.33;;;;;34.71;26.30;100969.81;4917233;28;45523;-77
2022/06/20 08:36:19;;;;;;;;;15.33;14.33;;;;;34.86;25.76;100976.88;4924248;28;45558;-78
2022/06/20 08:38:54;;;;;;;;;9.33;8.33;;;;;34.91;25.70;100975.63;4928370;28;46128;-77
2022/06/20 08:41:37;;;;;;;;;17.33;12.67;;;;;34.83;25.50;100979.03;4930001;28;45619;-77
2022/06/20 08:44:27;;;;;;;;;11.00;11.00;;;;;34.58;25.77;100955.28;4908475;28;45682;-77
2022/06/20 08:47:10;;;;;;;;;12.67;10.67;;;;;34.74;25.90;100986.13;4894074;29;45463;-77
2022/06/20 08:49:59;;;;;;;;;16.67;13.33;;;;;34.81;25.75;100990.19;4910292;28;45409;-78
2022/06/20 08:52:33;;;;;;;;;15.33;13.67;;;;;34.95;25.78;101005.63;4893579;29;46323;-77
2022/06/20 08:54:58;;;;;;;;;16.67;14.33;;;;;34.96;25.99;101012.84;4895700;29;45560;-77
2022/06/20 08:57:56;;;;;;;;;13.00;12.33;;;;;34.85;25.96;100988.03;4895468;29;45723;-78
2022/06/20 09:00:31;;;;;;;;;13.00;12.67;;;;;34.95;25.96;101004.72;4910120;28;45481;-78
2022/06/20 09:03:09;;;;;;;;;15.67;12.33;;;;;35.03;25.58;100994.81;4910344;28;47626;-77
2022/06/20 09:06:33;;;;;;;;;17.67;15.33;;;;;34.93;25.80;101013.13;4895404;29;45749;-78
2022/06/20 09:09:29;;;;;;;;;16.00;16.00;;;;;35.07;25.92;101023.03;4912400;28;45631;-77
2022/06/20 09:12:07;;;;;;;;;13.67;13.67;;;;;34.79;25.82;101030.72;4911021;28;45399;-78
2022/06/20 09:14:35;;;;;;;;;18.00;16.50;;;;;34.74;26.14;101038.50;4911806;28;45484;-77
2022/06/20 09:17:22;;;;;;;;;15.67;14.67;;;;;34.90;25.91;101032.66;4911829;28;45518;-77
2022/06/20 09:19:59;;;;;;;;;19.00;16.67;;;;;35.15;26.19;101037.09;4912357;28;45471;-77
2022/06/20 09:22:33;;;;;;;;;18.33;17.33;;;;;35.22;25.57;101038.34;4911055;28;45595;-77
2022/06/20 09:25:08;;;;;;;;;17.00;15.67;;;;;35.22;25.61;101037.47;4895194;28;47400;-77
2022/06/20 09:27:48;;;;;;;;;18.67;17.00;;;;;35.21;25.44;101035.72;4911553;28;45489;-77
2022/06/20 09:30:20;;;;;;;;;16.67;15.67;;;;;34.87;25.83;101020.00;4910310;28;45525;-77
2022/06/20 09:33:10;;;;;;;;;21.67;19.00;;;;;34.95;25.95;101037.78;4912021;28;45584;-77
2022/06/20 09:36:07;;;;;;;;;18.67;18.67;;;;;34.89;25.75;101035.53;4894950;28;47149;-77
2022/06/20 09:38:52;;;;;;;;;17.33;17.33;;;;;35.11;25.84;101024.53;4910420;28;45891;-77
2022/06/20 09:41:29;;;;;;;;;21.33;16.67;;;;;35.36;25.66;101030.88;4909668;28;45516;-77
2022/06/20 09:44:13;;;;;;;;;20.00;16.33;;;;;35.60;25.17;101032.59;4893303;29;45481;-77
2022/06/20 09:46:50;;;;;;;;;15.33;15.33;;;;;35.73;25.06;101044.38;4909599;28;48123;-77
2022/06/20 09:49:40;;;;;;;;;17.67;16.00;;;;;35.51;25.54;101046.16;4894752;28;45509;-78
2022/06/20 09:52:20;;;;;;;;;17.00;16.00;;;;;35.30;25.37;101065.34;4894892;29;45365;-78
2022/06/20 09:54:54;;;;;;;;;18.33;16.33;;;;;35.11;25.14;101070.56;4894964;28;45475;-77
2022/06/20 09:57:34;;;;;;;;;20.67;18.33;;;;;35.09;25.81;101075.28;4895125;29;46235;-78
2022/06/20 10:00:06;;;;;;;;;15.33;14.67;;;;;35.13;25.63;101065.78;4908870;28;45910;-78
2022/06/20 10:02:42;;;;;;;;;20.67;18.67;;;;;35.10;25.88;101055.00;4908234;28;45574;-78
2022/06/20 10:05:26;;;;;;;;;18.67;17.00;;;;;35.13;25.71;101054.75;4893850;29;45763;-78
2022/06/20 10:08:00;;;;;;;;;20.00;17.67;;;;;35.24;25.16;101062.16;4894385;29;45504;-78
2022/06/20 10:10:33;;;;;;;;;16.33;14.00;;;;;35.31;25.36;101064.31;4894611;29;45608;-78
2022/06/20 10:13:13;;;;;;;;;16.67;15.67;;;;;35.48;25.13;101075.88;4894341;29;45508;-78
2022/06/20 10:16:16;;;;;;;;;17.33;16.67;;;;;35.50;24.97;101065.56;4894869;28;45645;-78
2022/06/20 10:18:57;;;;;;;;;19.33;16.33;;;;;35.50;25.09;101072.00;4930366;28;46909;-78
2022/06/20 10:21:51;;;;;;;;;19.33;15.67;;;;;35.53;24.94;101062.59;4930168;28;45807;-78
2022/06/20 10:24:48;;;;;;;;;20.67;19.00;;;;;35.74;25.03;101076.50;4919511;28;45526;-78
2022/06/20 10:27:25;;;;;;;;;19.00;16.33;;;;;35.98;24.98;101075.47;4916807;28;45638;-78
2022/06/20 10:30:10;;;;;;;;;18.00;15.00;;;;;36.16;25.00;101064.75;4909803;28;46355;-78
2022/06/20 10:32:51;;;;;;;;;16.00;15.33;;;;;36.35;24.59;101064.97;4915121;28;45637;-78
2022/06/20 10:35:20;;;;;;;;;15.33;14.67;;;;;36.55;24.16;101071.53;4911718;28;45567;-79
2022/06/20 10:37:56;;;;;;;;;13.67;13.67;;;;;36.81;24.64;101067.56;4919333;28;45459;-78
2022/06/20 10:40:34;;;;;;;;;16.67;15.33;;;;;36.91;24.40;101077.69;4916660;28;46325;-78
2022/06/20 10:43:02;;;;;;;;;19.67;16.67;;;;;36.76;23.87;101076.22;4916576;28;45576;-78
2022/06/20 10:45:38;;;;;;;;;16.33;15.00;;;;;36.80;23.69;101091.56;4912163;28;45797;-79
2022/06/20 10:48:25;;;;;;;;;15.00;15.00;;;;;36.89;24.21;101059.47;4926772;28;45395;-77
2022/06/20 10:51:03;;;;;;;;;16.33;15.00;;;;;37.04;24.31;101074.69;4924095;28;45502;-77
2022/06/20 10:53:37;;;;;;;;;16.00;14.67;;;;;37.23;23.99;101078.59;4914250;28;45573;-77
2022/06/20 10:56:15;;;;;;;;;19.67;16.33;;;;;37.28;23.38;101100.38;4902056;28;45518;-78
2022/06/20 10:59:05;;;;;;;;;14.00;13.33;;;;;37.27;24.06;101096.69;4889103;28;45458;-77
2022/06/20 11:01:39;;;;;;;;;18.00;16.33;;;;;37.22;23.44;101088.78;4896311;29;46212;-78
2022/06/20 11:04:14;;;;;;;;;15.33;15.33;;;;;37.24;24.39;101088.66;4896119;29;45514;-79
2022/06/20 11:06:51;;;;;;;;;16.33;13.67;;;;;37.37;24.16;101103.19;4901513;28;45408;-78
2022/06/20 11:09:35;;;;;;;;;15.33;15.33;;;;;37.07;23.81;101076.31;4901305;29;45486;-78
2022/06/20 11:12:08;;;;;;;;;22.33;18.00;;;;;37.12;23.44;101101.69;4901198;28;46563;-78
2022/06/20 11:14:59;;;;;;;;;15.67;14.67;;;;;37.04;24.16;101104.25;4901069;29;45433;-78
2022/06/20 11:17:42;;;;;;;;;18.00;15.67;;;;;37.26;24.40;101092.16;4901161;28;45466;-78
2022/06/20 11:20:17;;;;;;;;;16.67;15.33;;;;;37.43;23.44;101110.06;4901387;29;45338;-78
2022/06/20 11:22:58;;;;;;;;;15.50;15.50;;;;;37.54;23.76;101107.19;4900932;28;46169;-78
2022/06/20 11:26:07;;;;;;;;;22.33;17.33;;;;;37.55;23.92;101092.34;4900964;28;45452;-79
2022/06/20 11:28:54;;;;;;;;;15.67;15.67;;;;;37.74;23.46;101104.53;4901040;29;45469;-78
2022/06/20 11:31:48;;;;;;;;;19.33;16.67;;;;;37.75;22.95;101103.50;4901067;28;45476;-79
2022/06/20 11:34:34;;;;;;;;;19.67;17.33;;;;;37.71;23.47;101118.66;4900471;29;46691;-78
2022/06/20 11:37:11;;;;;;;;;16.33;15.00;;;;;37.54;23.66;101117.38;4900784;29;45760;-79
2022/06/20 11:39:56;;;;;;;;;15.67;15.67;;;;;37.60;23.37;101116.84;4900665;29;45406;-79
2022/06/20 11:42:21;;;;;;;;;17.00;14.33;;;;;37.69;23.35;101112.34;4900870;28;45383;-79
2022/06/20 11:45:08;;;;;;;;;16.67;16.33;;;;;37.95;23.46;101104.47;4900518;29;46204;-79
2022/06/20 11:47:51;;;;;;;;;21.00;17.00;;;;;37.75;22.82;101093.34;4900219;29;45425;-79
2022/06/20 11:50:31;;;;;;;;;17.00;15.67;;;;;37.93;23.47;101125.88;4900773;28;45419;-78
2022/06/20 11:53:23;;;;;;;;;16.67;16.67;;;;;37.96;22.86;101108.97;4900818;28;45316;-78